sensor_id;sensor_type;location;lat;lon;timestamp;temperature;humidity
7646;DHT22;3864;48.180;14.178;2022-08-18T00:00:16;18.60;99.90
7646;DHT22;3864;48.180;14.178;2022-08-18T00:02:43;18.70;99.90
7646;DHT22;3864;48.180;14.178;2022-08-18T00:05:11;18.70;99.90
7646;DHT22;3864;48.180;14.178;2022-08-18T00:07:38;18.60;99.90
7646;DHT22;3864;48.180;14.178;2022-08-18T00:10:07;18.60;99.90
7646;DHT22;3864;48.180;14.178;2022-08-18T00:12:39;18.50;99.90
7646;DHT22;3864;48.180;14.178;2022-08-18T00:15:09;18.40;99.90
7646;DHT22;3864;48.180;14.178;2022-08-18T00:17:37;18.50;99.90
7646;DHT22;3864;48.180;14.178;2022-08-18T00:20:07;18.60;99.90
7646;DHT22;3864;48.180;14.178;2022-08-18T00:22:35;18.70;99.90
7646;DHT22;3864;48.180;14.178;2022-08-18T00:25:06;18.80;99.90
7646;DHT22;3864;48.180;14.178;2022-08-18T00:27:36;18.80;99.90
7646;DHT22;3864;48.180;14.178;2022-08-18T00:30:07;18.90;99.90
7646;DHT22;3864;48.180;14.178;2022-08-18T00:32:38;19.00;99.90
7646;DHT22;3864;48.180;14.178;2022-08-18T00:35:08;19.00;99.90
7646;DHT22;3864;48.180;14.178;2022-08-18T00:37:38;19.00;99.90
7646;DHT22;3864;48.180;14.178;2022-08-18T00:40:08;18.90;99.90
7646;DHT22;3864;48.180;14.178;2022-08-18T00:42:42;18.80;99.90
7646;DHT22;3864;48.180;14.178;2022-08-18T00:45:15;18.60;99.90
7646;DHT22;3864;48.180;14.178;2022-08-18T00:47:43;18.50;99.90
7646;DHT22;3864;48.180;14.178;2022-08-18T00:50:20;18.30;99.90
7646;DHT22;3864;48.180;14.178;2022-08-18T00:52:52;18.20;99.90
7646;DHT22;3864;48.180;14.178;2022-08-18T00:55:23;18.10;99.90
7646;DHT22;3864;48.180;14.178;2022-08-18T00:57:55;18.00;99.90
7646;DHT22;3864;48.180;14.178;2022-08-18T01:00:26;18.00;99.90
7646;DHT22;3864;48.180;14.178;2022-08-18T01:02:56;17.80;99.90
7646;DHT22;3864;48.180;14.178;2022-08-18T01:05:33;17.70;99.90
7646;DHT22;3864;48.180;14.178;2022-08-18T01:08:05;17.50;99.90
7646;DHT22;3864;48.180;14.178;2022-08-18T01:10:37;17.40;99.90
7646;DHT22;3864;48.180;14.178;2022-08-18T01:13:06;17.40;99.90
7646;DHT22;3864;48.180;14.178;2022-08-18T01:15:34;17.30;99.90
7646;DHT22;3864;48.180;14.178;2022-08-18T01:18:06;17.30;99.90
7646;DHT22;3864;48.180;14.178;2022-08-18T01:20:56;17.30;99.90
7646;DHT22;3864;48.180;14.178;2022-08-18T01:23:45;17.30;99.90
7646;DHT22;3864;48.180;14.178;2022-08-18T01:26:15;17.30;99.90
7646;DHT22;3864;48.180;14.178;2022-08-18T01:28:42;17.30;99.90
7646;DHT22;3864;48.180;14.178;2022-08-18T01:31:12;17.30;99.90
7646;DHT22;3864;48.180;14.178;2022-08-18T01:33:42;17.30;99.90
7646;DHT22;3864;48.180;14.178;2022-08-18T01:36:13;17.30;99.90
7646;DHT22;3864;48.180;14.178;2022-08-18T01:38:42;17.20;99.90
7646;DHT22;3864;48.180;14.178;2022-08-18T01:41:10;17.20;99.90
7646;DHT22;3864;48.180;14.178;2022-08-18T01:43:37;17.10;99.90
7646;DHT22;3864;48.180;14.178;2022-08-18T01:46:06;17.00;99.90
7646;DHT22;3864;48.180;14.178;2022-08-18T01:48:35;17.10;99.90
7646;DHT22;3864;48.180;14.178;2022-08-18T01:51:05;17.00;99.90
7646;DHT22;3864;48.180;14.178;2022-08-18T01:53:33;17.00;99.90
7646;DHT22;3864;48.180;14.178;2022-08-18T01:56:02;16.90;99.90
7646;DHT22;3864;48.180;14.178;2022-08-18T01:58:30;16.90;99.90
7646;DHT22;3864;48.180;14.178;2022-08-18T02:00:59;16.80;99.90
7646;DHT22;3864;48.180;14.178;2022-08-18T02:03:31;16.80;99.90
7646;DHT22;3864;48.180;14.178;2022-08-18T02:06:02;16.80;99.90
7646;DHT22;3864;48.180;14.178;2022-08-18T02:08:29;16.70;99.90
7646;DHT22;3864;48.180;14.178;2022-08-18T02:10:57;16.60;99.90
7646;DHT22;3864;48.180;14.178;2022-08-18T02:13:26;16.60;99.90
7646;DHT22;3864;48.180;14.178;2022-08-18T02:15:54;16.60;99.90
7646;DHT22;3864;48.180;14.178;2022-08-18T02:18:24;16.50;99.90
7646;DHT22;3864;48.180;14.178;2022-08-18T02:20:52;16.40;99.90
7646;DHT22;3864;48.180;14.178;2022-08-18T02:23:20;16.40;99.90
7646;DHT22;3864;48.180;14.178;2022-08-18T02:25:48;16.50;99.90
7646;DHT22;3864;48.180;14.178;2022-08-18T02:28:15;16.60;99.90
7646;DHT22;3864;48.180;14.178;2022-08-18T02:30:44;16.70;99.90
7646;DHT22;3864;48.180;14.178;2022-08-18T02:33:12;16.90;99.90
7646;DHT22;3864;48.180;14.178;2022-08-18T02:35:39;17.00;99.90
7646;DHT22;3864;48.180;14.178;2022-08-18T02:38:08;17.00;99.90
7646;DHT22;3864;48.180;14.178;2022-08-18T02:40:36;17.00;99.90
7646;DHT22;3864;48.180;14.178;2022-08-18T02:43:05;17.10;99.90
7646;DHT22;3864;48.180;14.178;2022-08-18T02:45:33;17.10;99.90
7646;DHT22;3864;48.180;14.178;2022-08-18T02:48:03;17.00;99.90
7646;DHT22;3864;48.180;14.178;2022-08-18T02:50:30;17.00;99.90
7646;DHT22;3864;48.180;14.178;2022-08-18T02:53:00;17.00;99.90
7646;DHT22;3864;48.180;14.178;2022-08-18T02:55:28;17.00;99.90
7646;DHT22;3864;48.180;14.178;2022-08-18T02:57:55;16.90;99.90
7646;DHT22;3864;48.180;14.178;2022-08-18T03:00:22;16.90;99.90
7646;DHT22;3864;48.180;14.178;2022-08-18T03:02:51;16.90;99.90
7646;DHT22;3864;48.180;14.178;2022-08-18T03:05:20;16.80;99.90
7646;DHT22;3864;48.180;14.178;2022-08-18T03:07:48;16.90;99.90
7646;DHT22;3864;48.180;14.178;2022-08-18T03:10:15;17.00;99.90
7646;DHT22;3864;48.180;14.178;2022-08-18T03:12:42;17.10;99.90
7646;DHT22;3864;48.180;14.178;2022-08-18T03:15:10;17.20;99.90
7646;DHT22;3864;48.180;14.178;2022-08-18T03:17:38;17.30;99.90
7646;DHT22;3864;48.180;14.178;2022-08-18T03:20:06;17.40;99.90
7646;DHT22;3864;48.180;14.178;2022-08-18T03:22:36;17.50;99.90
7646;DHT22;3864;48.180;14.178;2022-08-18T03:25:04;17.50;99.90
7646;DHT22;3864;48.180;14.178;2022-08-18T03:27:31;17.50;99.90
7646;DHT22;3864;48.180;14.178;2022-08-18T03:29:59;17.40;99.90
7646;DHT22;3864;48.180;14.178;2022-08-18T03:32:27;17.40;99.90
7646;DHT22;3864;48.180;14.178;2022-08-18T03:34:54;17.30;99.90
7646;DHT22;3864;48.180;14.178;2022-08-18T03:37:22;17.20;99.90
7646;DHT22;3864;48.180;14.178;2022-08-18T03:39:51;17.10;99.90
7646;DHT22;3864;48.180;14.178;2022-08-18T03:42:19;17.00;99.90
7646;DHT22;3864;48.180;14.178;2022-08-18T03:44:47;16.90;99.90
7646;DHT22;3864;48.180;14.178;2022-08-18T03:47:14;16.80;99.90
7646;DHT22;3864;48.180;14.178;2022-08-18T03:49:42;16.80;99.90
7646;DHT22;3864;48.180;14.178;2022-08-18T03:52:10;16.80;99.90
7646;DHT22;3864;48.180;14.178;2022-08-18T03:54:38;16.80;99.90
7646;DHT22;3864;48.180;14.178;2022-08-18T03:57:08;16.70;99.90
7646;DHT22;3864;48.180;14.178;2022-08-18T03:59:37;16.60;99.90
7646;DHT22;3864;48.180;14.178;2022-08-18T04:02:06;16.60;99.90
7646;DHT22;3864;48.180;14.178;2022-08-18T04:04:34;16.60;99.90
7646;DHT22;3864;48.180;14.178;2022-08-18T04:07:04;16.60;99.90
7646;DHT22;3864;48.180;14.178;2022-08-18T04:09:33;16.60;99.90
7646;DHT22;3864;48.180;14.178;2022-08-18T04:12:05;16.60;99.90
7646;DHT22;3864;48.180;14.178;2022-08-18T04:14:39;16.60;99.90
7646;DHT22;3864;48.180;14.178;2022-08-18T04:17:07;16.60;99.90
7646;DHT22;3864;48.180;14.178;2022-08-18T04:19:35;16.70;99.90
7646;DHT22;3864;48.180;14.178;2022-08-18T04:22:03;16.70;99.90
7646;DHT22;3864;48.180;14.178;2022-08-18T04:24:31;16.80;99.90
7646;DHT22;3864;48.180;14.178;2022-08-18T04:27:00;16.80;99.90
7646;DHT22;3864;48.180;14.178;2022-08-18T04:29:28;16.80;99.90
7646;DHT22;3864;48.180;14.178;2022-08-18T04:32:00;16.90;99.90
7646;DHT22;3864;48.180;14.178;2022-08-18T04:34:29;16.90;99.90
7646;DHT22;3864;48.180;14.178;2022-08-18T04:36:59;17.00;99.90
7646;DHT22;3864;48.180;14.178;2022-08-18T04:39:27;17.10;99.90
7646;DHT22;3864;48.180;14.178;2022-08-18T04:41:55;17.10;99.90
7646;DHT22;3864;48.180;14.178;2022-08-18T04:44:23;17.20;99.90
7646;DHT22;3864;48.180;14.178;2022-08-18T04:46:53;17.20;99.90
7646;DHT22;3864;48.180;14.178;2022-08-18T04:49:23;17.30;99.90
7646;DHT22;3864;48.180;14.178;2022-08-18T04:51:52;17.40;99.90
7646;DHT22;3864;48.180;14.178;2022-08-18T04:54:38;17.40;99.90
7646;DHT22;3864;48.180;14.178;2022-08-18T04:57:08;17.40;99.90
7646;DHT22;3864;48.180;14.178;2022-08-18T04:59:36;17.40;99.90
7646;DHT22;3864;48.180;14.178;2022-08-18T05:02:04;17.50;99.90
7646;DHT22;3864;48.180;14.178;2022-08-18T05:04:35;17.60;99.90
7646;DHT22;3864;48.180;14.178;2022-08-18T05:07:04;17.60;99.90
7646;DHT22;3864;48.180;14.178;2022-08-18T05:09:33;17.60;99.90
7646;DHT22;3864;48.180;14.178;2022-08-18T05:12:00;17.70;99.90
7646;DHT22;3864;48.180;14.178;2022-08-18T05:14:28;17.70;99.90
7646;DHT22;3864;48.180;14.178;2022-08-18T05:16:58;17.80;99.90
7646;DHT22;3864;48.180;14.178;2022-08-18T05:19:26;17.80;99.90
7646;DHT22;3864;48.180;14.178;2022-08-18T05:21:57;17.80;99.90
7646;DHT22;3864;48.180;14.178;2022-08-18T05:24:26;17.90;99.90
7646;DHT22;3864;48.180;14.178;2022-08-18T05:26:54;18.00;99.90
7646;DHT22;3864;48.180;14.178;2022-08-18T05:29:22;18.10;99.90
7646;DHT22;3864;48.180;14.178;2022-08-18T05:31:50;18.30;99.90
7646;DHT22;3864;48.180;14.178;2022-08-18T05:34:19;18.40;99.90
7646;DHT22;3864;48.180;14.178;2022-08-18T05:37:13;18.40;99.90
7646;DHT22;3864;48.180;14.178;2022-08-18T05:39:52;18.50;99.90
7646;DHT22;3864;48.180;14.178;2022-08-18T05:42:23;18.60;99.90
7646;DHT22;3864;48.180;14.178;2022-08-18T05:44:54;18.70;99.90
7646;DHT22;3864;48.180;14.178;2022-08-18T05:47:24;18.70;99.90
7646;DHT22;3864;48.180;14.178;2022-08-18T05:49:52;18.70;99.90
7646;DHT22;3864;48.180;14.178;2022-08-18T05:52:32;18.80;99.90
7646;DHT22;3864;48.180;14.178;2022-08-18T05:55:04;18.90;99.90
7646;DHT22;3864;48.180;14.178;2022-08-18T05:57:52;19.10;99.90
7646;DHT22;3864;48.180;14.178;2022-08-18T06:00:21;19.20;99.90
7646;DHT22;3864;48.180;14.178;2022-08-18T06:02:53;19.40;99.90
7646;DHT22;3864;48.180;14.178;2022-08-18T06:05:27;19.60;99.90
7646;DHT22;3864;48.180;14.178;2022-08-18T06:07:58;19.90;99.90
7646;DHT22;3864;48.180;14.178;2022-08-18T06:10:26;20.00;99.90
7646;DHT22;3864;48.180;14.178;2022-08-18T06:12:57;20.20;99.90
7646;DHT22;3864;48.180;14.178;2022-08-18T06:15:31;20.30;99.90
7646;DHT22;3864;48.180;14.178;2022-08-18T06:18:26;20.40;99.90
7646;DHT22;3864;48.180;14.178;2022-08-18T06:21:12;20.50;99.90
7646;DHT22;3864;48.180;14.178;2022-08-18T06:23:50;20.60;99.90
7646;DHT22;3864;48.180;14.178;2022-08-18T06:26:24;20.60;99.90
7646;DHT22;3864;48.180;14.178;2022-08-18T06:29:13;21.00;99.90
7646;DHT22;3864;48.180;14.178;2022-08-18T06:31:55;23.50;99.90
7646;DHT22;3864;48.180;14.178;2022-08-18T06:34:36;26.60;99.90
7646;DHT22;3864;48.180;14.178;2022-08-18T06:37:15;29.10;99.90
7646;DHT22;3864;48.180;14.178;2022-08-18T06:39:49;30.40;99.90
7646;DHT22;3864;48.180;14.178;2022-08-18T06:42:18;31.10;99.70
7646;DHT22;3864;48.180;14.178;2022-08-18T06:44:48;31.50;98.50
7646;DHT22;3864;48.180;14.178;2022-08-18T06:47:24;32.00;97.60
7646;DHT22;3864;48.180;14.178;2022-08-18T06:50:03;31.80;96.30
7646;DHT22;3864;48.180;14.178;2022-08-18T06:52:34;30.90;96.50
7646;DHT22;3864;48.180;14.178;2022-08-18T06:55:06;30.80;97.40
7646;DHT22;3864;48.180;14.178;2022-08-18T06:57:35;30.90;96.10
7646;DHT22;3864;48.180;14.178;2022-08-18T07:00:22;30.70;96.30
7646;DHT22;3864;48.180;14.178;2022-08-18T07:02:52;31.50;95.10
7646;DHT22;3864;48.180;14.178;2022-08-18T07:05:25;31.20;95.20
7646;DHT22;3864;48.180;14.178;2022-08-18T07:08:08;30.70;95.60
7646;DHT22;3864;48.180;14.178;2022-08-18T07:10:39;29.80;95.80
7646;DHT22;3864;48.180;14.178;2022-08-18T07:13:15;28.90;97.00
7646;DHT22;3864;48.180;14.178;2022-08-18T07:15:43;28.20;97.40
7646;DHT22;3864;48.180;14.178;2022-08-18T07:18:14;27.80;98.30
7646;DHT22;3864;48.180;14.178;2022-08-18T07:20:43;27.70;98.70
7646;DHT22;3864;48.180;14.178;2022-08-18T07:23:22;28.00;99.00
7646;DHT22;3864;48.180;14.178;2022-08-18T07:26:01;28.10;98.00
7646;DHT22;3864;48.180;14.178;2022-08-18T07:28:31;27.80;98.70
7646;DHT22;3864;48.180;14.178;2022-08-18T07:31:17;27.80;98.70
7646;DHT22;3864;48.180;14.178;2022-08-18T07:33:50;27.90;98.40
7646;DHT22;3864;48.180;14.178;2022-08-18T07:36:24;27.80;98.30
7646;DHT22;3864;48.180;14.178;2022-08-18T07:38:57;27.60;98.30
7646;DHT22;3864;48.180;14.178;2022-08-18T07:41:32;27.50;98.70
7646;DHT22;3864;48.180;14.178;2022-08-18T07:44:12;27.30;98.90
7646;DHT22;3864;48.180;14.178;2022-08-18T07:46:50;27.30;98.90
7646;DHT22;3864;48.180;14.178;2022-08-18T07:49:20;27.70;99.00
7646;DHT22;3864;48.180;14.178;2022-08-18T07:51:53;28.50;98.10
7646;DHT22;3864;48.180;14.178;2022-08-18T07:54:38;28.60;98.20
7646;DHT22;3864;48.180;14.178;2022-08-18T07:57:16;28.30;98.90
7646;DHT22;3864;48.180;14.178;2022-08-18T07:59:51;28.00;98.60
7646;DHT22;3864;48.180;14.178;2022-08-18T08:02:30;27.00;99.10
7646;DHT22;3864;48.180;14.178;2022-08-18T08:05:05;26.60;99.70
7646;DHT22;3864;48.180;14.178;2022-08-18T08:07:40;26.40;99.90
7646;DHT22;3864;48.180;14.178;2022-08-18T08:10:22;26.30;99.90
7646;DHT22;3864;48.180;14.178;2022-08-18T08:12:57;26.20;99.90
7646;DHT22;3864;48.180;14.178;2022-08-18T08:15:35;26.30;99.90
7646;DHT22;3864;48.180;14.178;2022-08-18T08:18:12;26.40;99.90
7646;DHT22;3864;48.180;14.178;2022-08-18T08:20:46;26.40;99.90
7646;DHT22;3864;48.180;14.178;2022-08-18T08:23:23;26.30;99.90
7646;DHT22;3864;48.180;14.178;2022-08-18T08:26:04;26.40;99.90
7646;DHT22;3864;48.180;14.178;2022-08-18T08:28:44;26.70;99.90
7646;DHT22;3864;48.180;14.178;2022-08-18T08:31:19;27.60;99.90
7646;DHT22;3864;48.180;14.178;2022-08-18T08:33:53;28.70;99.50
7646;DHT22;3864;48.180;14.178;2022-08-18T08:36:29;29.40;98.30
7646;DHT22;3864;48.180;14.178;2022-08-18T08:39:00;30.00;97.80
7646;DHT22;3864;48.180;14.178;2022-08-18T08:41:32;30.40;97.30
7646;DHT22;3864;48.180;14.178;2022-08-18T08:44:08;31.50;96.50
7646;DHT22;3864;48.180;14.178;2022-08-18T08:46:42;32.50;94.80
7646;DHT22;3864;48.180;14.178;2022-08-18T08:49:28;34.40;92.90
7646;DHT22;3864;48.180;14.178;2022-08-18T08:52:00;35.60;91.90
7646;DHT22;3864;48.180;14.178;2022-08-18T08:54:38;36.50;90.50
7646;DHT22;3864;48.180;14.178;2022-08-18T08:57:08;37.60;90.80
7646;DHT22;3864;48.180;14.178;2022-08-18T08:59:39;37.70;87.30
7646;DHT22;3864;48.180;14.178;2022-08-18T09:02:27;38.20;89.20
7646;DHT22;3864;48.180;14.178;2022-08-18T09:05:04;37.80;84.00
7646;DHT22;3864;48.180;14.178;2022-08-18T09:11:09;38.90;85.40
7646;DHT22;3864;48.180;14.178;2022-08-18T09:14:09;39.40;81.60
7646;DHT22;3864;48.180;14.178;2022-08-18T09:16:51;39.30;79.90
7646;DHT22;3864;48.180;14.178;2022-08-18T09:22:36;40.40;77.90
7646;DHT22;3864;48.180;14.178;2022-08-18T09:25:09;41.90;79.40
7646;DHT22;3864;48.180;14.178;2022-08-18T09:27:40;42.70;77.40
7646;DHT22;3864;48.180;14.178;2022-08-18T09:30:39;42.10;76.20
7646;DHT22;3864;48.180;14.178;2022-08-18T09:33:20;42.00;77.20
7646;DHT22;3864;48.180;14.178;2022-08-18T09:36:16;42.00;74.80
7646;DHT22;3864;48.180;14.178;2022-08-18T09:38:50;42.30;75.10
7646;DHT22;3864;48.180;14.178;2022-08-18T09:41:39;42.50;72.60
7646;DHT22;3864;48.180;14.178;2022-08-18T09:44:14;43.30;73.10
7646;DHT22;3864;48.180;14.178;2022-08-18T09:47:01;44.00;70.20
7646;DHT22;3864;48.180;14.178;2022-08-18T09:49:48;43.80;71.80
7646;DHT22;3864;48.180;14.178;2022-08-18T09:52:45;42.80;72.10
7646;DHT22;3864;48.180;14.178;2022-08-18T09:55:50;40.80;71.90
7646;DHT22;3864;48.180;14.178;2022-08-18T09:58:45;39.30;71.70
7646;DHT22;3864;48.180;14.178;2022-08-18T10:01:21;38.50;77.00
7646;DHT22;3864;48.180;14.178;2022-08-18T10:04:28;38.60;75.00
7646;DHT22;3864;48.180;14.178;2022-08-18T10:10:12;36.10;80.20
7646;DHT22;3864;48.180;14.178;2022-08-18T10:13:00;34.50;83.00
7646;DHT22;3864;48.180;14.178;2022-08-18T10:15:38;34.60;82.50
7646;DHT22;3864;48.180;14.178;2022-08-18T10:18:27;34.70;78.80
7646;DHT22;3864;48.180;14.178;2022-08-18T10:21:01;35.10;79.20
7646;DHT22;3864;48.180;14.178;2022-08-18T10:23:52;34.60;79.70
7646;DHT22;3864;48.180;14.178;2022-08-18T10:30:02;33.90;82.10
7646;DHT22;3864;48.180;14.178;2022-08-18T10:32:41;33.50;80.50
7646;DHT22;3864;48.180;14.178;2022-08-18T10:38:50;35.70;77.80
7646;DHT22;3864;48.180;14.178;2022-08-18T10:41:26;36.50;76.60
7646;DHT22;3864;48.180;14.178;2022-08-18T10:43:55;37.40;76.60
7646;DHT22;3864;48.180;14.178;2022-08-18T10:46:27;38.70;75.30
7646;DHT22;3864;48.180;14.178;2022-08-18T10:49:14;39.40;75.00
7646;DHT22;3864;48.180;14.178;2022-08-18T10:52:01;40.10;73.90
7646;DHT22;3864;48.180;14.178;2022-08-18T10:54:39;39.60;73.70
7646;DHT22;3864;48.180;14.178;2022-08-18T10:57:16;39.10;76.20
7646;DHT22;3864;48.180;14.178;2022-08-18T10:59:51;39.40;77.60
7646;DHT22;3864;48.180;14.178;2022-08-18T11:02:42;39.60;73.70
7646;DHT22;3864;48.180;14.178;2022-08-18T11:05:24;40.00;75.40
7646;DHT22;3864;48.180;14.178;2022-08-18T11:07:56;40.70;75.90
7646;DHT22;3864;48.180;14.178;2022-08-18T11:10:35;40.60;74.10
7646;DHT22;3864;48.180;14.178;2022-08-18T11:13:09;40.70;73.60
7646;DHT22;3864;48.180;14.178;2022-08-18T11:15:48;40.30;72.40
7646;DHT22;3864;48.180;14.178;2022-08-18T11:18:29;39.70;72.90
7646;DHT22;3864;48.180;14.178;2022-08-18T11:21:24;40.00;77.20
7646;DHT22;3864;48.180;14.178;2022-08-18T11:24:02;40.20;75.90
7646;DHT22;3864;48.180;14.178;2022-08-18T11:26:31;39.90;76.30
7646;DHT22;3864;48.180;14.178;2022-08-18T11:28:59;40.20;73.70
7646;DHT22;3864;48.180;14.178;2022-08-18T11:31:27;40.50;73.20
7646;DHT22;3864;48.180;14.178;2022-08-18T11:33:56;40.40;72.20
7646;DHT22;3864;48.180;14.178;2022-08-18T11:36:29;40.10;71.80
7646;DHT22;3864;48.180;14.178;2022-08-18T11:38:57;39.50;73.60
7646;DHT22;3864;48.180;14.178;2022-08-18T11:41:26;39.40;76.00
7646;DHT22;3864;48.180;14.178;2022-08-18T11:43:55;39.60;72.40
7646;DHT22;3864;48.180;14.178;2022-08-18T11:46:28;38.60;73.40
7646;DHT22;3864;48.180;14.178;2022-08-18T11:48:59;38.50;74.10
7646;DHT22;3864;48.180;14.178;2022-08-18T11:51:29;37.70;78.20
7646;DHT22;3864;48.180;14.178;2022-08-18T11:53:58;37.00;80.00
7646;DHT22;3864;48.180;14.178;2022-08-18T11:56:28;36.90;81.10
7646;DHT22;3864;48.180;14.178;2022-08-18T11:58:57;36.80;79.70
7646;DHT22;3864;48.180;14.178;2022-08-18T12:01:39;37.20;80.10
7646;DHT22;3864;48.180;14.178;2022-08-18T12:04:21;37.30;76.70
7646;DHT22;3864;48.180;14.178;2022-08-18T12:06:58;37.00;79.20
7646;DHT22;3864;48.180;14.178;2022-08-18T12:09:32;37.10;77.70
7646;DHT22;3864;48.180;14.178;2022-08-18T12:12:03;37.10;77.00
7646;DHT22;3864;48.180;14.178;2022-08-18T12:14:33;36.80;77.70
7646;DHT22;3864;48.180;14.178;2022-08-18T12:17:01;36.80;77.30
7646;DHT22;3864;48.180;14.178;2022-08-18T12:19:31;36.60;79.30
7646;DHT22;3864;48.180;14.178;2022-08-18T12:21:59;36.60;79.60
7646;DHT22;3864;48.180;14.178;2022-08-18T12:24:28;36.10;79.90
7646;DHT22;3864;48.180;14.178;2022-08-18T12:26:57;35.80;82.70
7646;DHT22;3864;48.180;14.178;2022-08-18T12:29:25;35.30;80.60
7646;DHT22;3864;48.180;14.178;2022-08-18T12:31:54;34.90;80.30
7646;DHT22;3864;48.180;14.178;2022-08-18T12:34:23;34.60;81.30
7646;DHT22;3864;48.180;14.178;2022-08-18T12:36:55;34.10;81.00
7646;DHT22;3864;48.180;14.178;2022-08-18T12:39:23;33.90;85.30
7646;DHT22;3864;48.180;14.178;2022-08-18T12:41:50;34.30;82.40
7646;DHT22;3864;48.180;14.178;2022-08-18T12:44:17;35.10;80.30
7646;DHT22;3864;48.180;14.178;2022-08-18T12:46:45;36.00;79.60
7646;DHT22;3864;48.180;14.178;2022-08-18T12:49:15;36.60;80.00
7646;DHT22;3864;48.180;14.178;2022-08-18T12:51:43;37.00;79.20
7646;DHT22;3864;48.180;14.178;2022-08-18T12:54:12;37.10;78.70
7646;DHT22;3864;48.180;14.178;2022-08-18T12:56:41;37.10;82.70
7646;DHT22;3864;48.180;14.178;2022-08-18T12:59:09;36.30;81.80
7646;DHT22;3864;48.180;14.178;2022-08-18T13:01:38;36.10;82.10
7646;DHT22;3864;48.180;14.178;2022-08-18T13:04:06;36.10;84.20
7646;DHT22;3864;48.180;14.178;2022-08-18T13:06:37;36.00;84.30
7646;DHT22;3864;48.180;14.178;2022-08-18T13:09:05;35.60;84.00
7646;DHT22;3864;48.180;14.178;2022-08-18T13:11:35;35.50;85.70
7646;DHT22;3864;48.180;14.178;2022-08-18T13:14:02;35.10;86.30
7646;DHT22;3864;48.180;14.178;2022-08-18T13:16:33;35.00;86.70
7646;DHT22;3864;48.180;14.178;2022-08-18T13:19:02;35.00;87.80
7646;DHT22;3864;48.180;14.178;2022-08-18T13:21:29;35.20;87.40
7646;DHT22;3864;48.180;14.178;2022-08-18T13:23:57;35.20;84.40
7646;DHT22;3864;48.180;14.178;2022-08-18T13:26:27;35.20;81.90
7646;DHT22;3864;48.180;14.178;2022-08-18T13:28:56;35.30;84.80
7646;DHT22;3864;48.180;14.178;2022-08-18T13:31:24;35.00;84.50
7646;DHT22;3864;48.180;14.178;2022-08-18T13:33:52;34.80;85.30
7646;DHT22;3864;48.180;14.178;2022-08-18T13:36:21;34.60;87.30
7646;DHT22;3864;48.180;14.178;2022-08-18T13:38:49;34.40;88.10
7646;DHT22;3864;48.180;14.178;2022-08-18T13:41:17;34.50;88.60
7646;DHT22;3864;48.180;14.178;2022-08-18T13:43:44;34.60;89.50
7646;DHT22;3864;48.180;14.178;2022-08-18T13:46:15;34.60;89.30
7646;DHT22;3864;48.180;14.178;2022-08-18T13:48:43;34.30;90.30
7646;DHT22;3864;48.180;14.178;2022-08-18T13:51:18;34.10;90.20
7646;DHT22;3864;48.180;14.178;2022-08-18T13:53:48;33.70;90.80
7646;DHT22;3864;48.180;14.178;2022-08-18T13:56:16;33.50;90.60
7646;DHT22;3864;48.180;14.178;2022-08-18T13:58:45;33.30;90.70
7646;DHT22;3864;48.180;14.178;2022-08-18T14:01:14;33.10;91.20
7646;DHT22;3864;48.180;14.178;2022-08-18T14:03:41;32.90;90.80
7646;DHT22;3864;48.180;14.178;2022-08-18T14:06:09;32.80;91.10
7646;DHT22;3864;48.180;14.178;2022-08-18T14:08:37;32.70;91.50
7646;DHT22;3864;48.180;14.178;2022-08-18T14:11:04;32.60;91.10
7646;DHT22;3864;48.180;14.178;2022-08-18T14:13:32;32.50;91.60
7646;DHT22;3864;48.180;14.178;2022-08-18T14:15:59;32.20;91.80
7646;DHT22;3864;48.180;14.178;2022-08-18T14:18:28;31.90;91.90
7646;DHT22;3864;48.180;14.178;2022-08-18T14:20:56;31.40;92.30
7646;DHT22;3864;48.180;14.178;2022-08-18T14:23:40;30.90;92.60
7646;DHT22;3864;48.180;14.178;2022-08-18T14:26:24;30.40;93.10
7646;DHT22;3864;48.180;14.178;2022-08-18T14:29:08;29.80;93.40
7646;DHT22;3864;48.180;14.178;2022-08-18T14:31:36;29.40;93.80
7646;DHT22;3864;48.180;14.178;2022-08-18T14:34:05;29.00;94.90
7646;DHT22;3864;48.180;14.178;2022-08-18T14:36:33;28.70;94.50
7646;DHT22;3864;48.180;14.178;2022-08-18T14:39:01;28.40;95.10
7646;DHT22;3864;48.180;14.178;2022-08-18T14:41:36;28.10;94.00
7646;DHT22;3864;48.180;14.178;2022-08-18T14:44:03;27.90;97.30
7646;DHT22;3864;48.180;14.178;2022-08-18T14:46:31;26.80;99.90
7646;DHT22;3864;48.180;14.178;2022-08-18T14:48:59;25.10;99.90
7646;DHT22;3864;48.180;14.178;2022-08-18T14:51:28;24.10;99.90
7646;DHT22;3864;48.180;14.178;2022-08-18T14:53:56;23.40;99.90
7646;DHT22;3864;48.180;14.178;2022-08-18T14:56:25;22.90;99.90
7646;DHT22;3864;48.180;14.178;2022-08-18T14:58:53;22.50;99.90
7646;DHT22;3864;48.180;14.178;2022-08-18T15:01:22;22.50;99.90
7646;DHT22;3864;48.180;14.178;2022-08-18T15:03:50;22.30;99.90
7646;DHT22;3864;48.180;14.178;2022-08-18T15:06:18;21.80;99.90
7646;DHT22;3864;48.180;14.178;2022-08-18T15:08:47;21.40;99.90
7646;DHT22;3864;48.180;14.178;2022-08-18T15:11:15;21.30;99.90
7646;DHT22;3864;48.180;14.178;2022-08-18T15:13:43;21.20;99.90
7646;DHT22;3864;48.180;14.178;2022-08-18T15:16:11;21.10;99.90
7646;DHT22;3864;48.180;14.178;2022-08-18T15:18:39;21.00;99.90
7646;DHT22;3864;48.180;14.178;2022-08-18T15:21:06;21.10;99.90
7646;DHT22;3864;48.180;14.178;2022-08-18T15:23:52;21.30;99.90
7646;DHT22;3864;48.180;14.178;2022-08-18T15:26:36;21.40;99.90
7646;DHT22;3864;48.180;14.178;2022-08-18T15:29:04;21.60;99.90
7646;DHT22;3864;48.180;14.178;2022-08-18T15:31:32;21.80;99.90
7646;DHT22;3864;48.180;14.178;2022-08-18T15:34:00;21.70;99.90
7646;DHT22;3864;48.180;14.178;2022-08-18T15:36:30;21.70;99.90
7646;DHT22;3864;48.180;14.178;2022-08-18T15:39:02;21.60;99.90
7646;DHT22;3864;48.180;14.178;2022-08-18T15:41:32;21.60;99.90
7646;DHT22;3864;48.180;14.178;2022-08-18T15:44:01;21.80;99.90
7646;DHT22;3864;48.180;14.178;2022-08-18T15:46:31;22.00;99.90
7646;DHT22;3864;48.180;14.178;2022-08-18T15:48:59;22.30;99.90
7646;DHT22;3864;48.180;14.178;2022-08-18T15:51:29;22.60;99.90
7646;DHT22;3864;48.180;14.178;2022-08-18T15:53:57;23.10;99.90
7646;DHT22;3864;48.180;14.178;2022-08-18T15:56:26;23.40;99.90
7646;DHT22;3864;48.180;14.178;2022-08-18T15:58:54;23.80;99.90
7646;DHT22;3864;48.180;14.178;2022-08-18T16:01:22;24.40;99.90
7646;DHT22;3864;48.180;14.178;2022-08-18T16:03:51;25.30;99.90
7646;DHT22;3864;48.180;14.178;2022-08-18T16:06:22;26.00;99.90
7646;DHT22;3864;48.180;14.178;2022-08-18T16:08:51;26.60;99.90
7646;DHT22;3864;48.180;14.178;2022-08-18T16:11:19;27.00;99.90
7646;DHT22;3864;48.180;14.178;2022-08-18T16:13:49;27.20;99.90
7646;DHT22;3864;48.180;14.178;2022-08-18T16:16:19;27.40;99.90
7646;DHT22;3864;48.180;14.178;2022-08-18T16:18:47;27.50;99.90
7646;DHT22;3864;48.180;14.178;2022-08-18T16:21:17;27.50;99.90
7646;DHT22;3864;48.180;14.178;2022-08-18T16:23:47;27.70;99.90
7646;DHT22;3864;48.180;14.178;2022-08-18T16:26:16;27.90;99.90
7646;DHT22;3864;48.180;14.178;2022-08-18T16:28:46;28.00;99.90
7646;DHT22;3864;48.180;14.178;2022-08-18T16:31:18;27.90;99.90
7646;DHT22;3864;48.180;14.178;2022-08-18T16:33:50;27.80;99.90